Aérodrome :
LOGIN :

S'inscrire | Disclaimer

   EN    FR    IT 

 










Légende :    VFR   VFR Marginal   IFR   IFR Intensif   IFR Très Intensif
Visi : 
Plafond : 
>= 8 km
>= 3000ft
5 à 8 km
1000 à 3000 ft
1500m à 5 km
500 à 1000 ft
800 à 1500m
200 à 500 ft
< 800m
< 200 ft
Symboles :   Orages  Brouillard  Fortes neiges  Fortes précipitations  Vent > 20 kt
SIGMETs :   Divers  Orages  Givrage  Turbulence  Onde Orograph.  Cendres Volcan.






- Altitude de l'aérodrome : 681 ft
- Code IATA : LBA


EGNM - Leeds Bradford

DERNIER METAR :
  • 060550Z 22015KT 9999 -RADZ SCT004 BKN006 10/10 Q0998

METARs EXPIRÉS :
  • 060520Z 22013KT 9000 -RADZ SCT005 BKN007 10/10 Q0999
  • 060450Z 22012KT 9999 -RADZ SCT004 BKN008 10/10 Q0999
  • 060420Z 21010KT 4000 -RADZ BR SCT002 BKN004 10/10 Q1000
  • 060350Z 22010KT 6000 -RADZ SCT002 BKN004 10/10 Q1000
  • 060320Z 21011KT 6000 -RADZ SCT002 BKN004 10/10 Q1001

TAF TAF EGNM
Valide du 06 à 06h jusqu'au 07 à 06h UTC


060502Z 0606/0706 22012KT 6000 -RADZ BKN004
BECMG 0606/0609 9999 NSW BKN018
TEMPO 0606/0617 24015G25KT
TEMPO 0610/0616 7000 SHRA
PROB30
TEMPO 0611/0616 26020G35KT 4000 +SHRA BKN012
BECMG 0616/0619 28014KT
ATIS : +44 113 250 9696 (x2489)



MET'MAP, la Météo Aéronautique d'un coup d'oeil ! - Copyright ORBIFLY Décembre 2007 - Disclaimer

ORBIFLY MET'MAP TEAM :

Programmation & Développement : Alexandra Zaïnal
Sur une idée originale de : Baudouin d'Aumeries
Assistance à la programmation : Marc-Olivier Méhu
Soutien technique & logistique : Manuel Goepfert

Contact : metmap@orbifly.com




SOURCES & CREDITS :

   NOAA